View Sortable Currents For Network
ASOSAWOSCoCoRaHSCOOPDCPISUSM
SchoolNetOtherSCANMy FavoritesBy StateRWIS
RWIS SurfaceRWIS TrafficRWIS SoilBy NWS WFO
Select Network:
Include METARS:
Sort Order: Format:

Times shown are for timezone: America/New_York. The local day summary is based on that timezone.
Table sorted by: (Observation Time)     Click on a column to sort it. Click on site ID for more information. You can download data from this network here and you can view daily summaries on this network.
ADD: ID Station Ob Time Present Wx Temps °F   Wind [knots] Precip Clouds
Air Hi Lo Dewp Feels RH % Alti Vsby Speed Drct Gust @ Time 1 Hour Today Level 1 Level 2 Level 3 Level 4
ADWANDREWS AFB07:35 AMFG 636357 63 64 100 30.23 0.25 3SSE6 @ 06:41 AM0 VV 100
SBYSALISBURY REGIONAL07:35 AMBR 566256 56 56 100 30.25 3 3E5 @ 12:35 AM0 BKN 300
GAIGaithersburg07:32 AMBR 616154 61 62 100 30.25 1.25 4SE5 @ 12:15 AM0 OVC 200
NUISt Inigoes07:31 AM 616458 60 0 97 30.22 8 0N4 @ 04:12 AM0 BKN 5500
CBECumberland07:26 AM 556354 54 0 94 30.21 10 0N5 @ 12:46 AM0 SCT 3100 BKN 4500
2G4Oakland07:25 AM 525452 50 50 94 30.13 10 11G17SE20 @ 06:25 AM0 CLR
CGSCollege Park07:25 AM 595952 58 0 99 30.24 0.5 0N0 OVC 200
DMWWestminster07:25 AMBR 616157 61 0 100 30.25 1.25 0N8 @ 12:05 AM0 OVC 200
CGECambridge07:25 AMBR 595955 59 60 100 30.24 3 5ESE5 @ 07:25 AM0 BKN 4700 OVC 5500
FMEFort Meade07:24 AM 616150 59 0 94 30.26 3 0N0 OVC 300
W29Stevensville07:20 AMBR 636359 61 63 94 30.24 5 4SE7 @ 05:20 AM0 BKN 200
BWIBALTIMORE/WASH INTL07:11 AMBR 626254 62 63 100 30.25 2.5 4NE4 @ 04:35 AM0 OVC 300
NAKAnnapolis06:54 AM 666665 66 68 100 30.24 10 9SE9 @ 06:54 AM0 OVC 700
DMHBALTIMORE INNER HARBOR06:54 AM 626461 61 0 96 30.26 0N0
RSPCamp David06:54 AMFG 565755 56 56 100 30.25 0.25 6SSW15 @ 04:20 AM0 VV 100
HGRHAGERSTOWN REGIONAL06:53 AM 606158 58 60 92 30.22 9 5SSE7 @ 01:00 AM0 OVC 900
OXBOCEAN CITY MUNI06:53 AM 686867 66 70 93 30.26 10 6SE7 @ 05:05 AM0 BKN 4900
NHKPATUXENT RIVER NAS06:52 AM 656759 65 67 100 30.23 10 4SE6 @ 12:52 AM0 FEW 700 FEW 6000 SCT 26000
FDKFREDERICK MUNI APT06:50 AMBR 575750 57 0 100 30.27 3 0N0 SCT 400 OVC 1100
ESNEaston06:45 AMBR 616158 59 0 94 30.29 1.25 0N4 @ 12:16 AM0 OVC 100
MTNBALTIMORE/MARTIN06:45 AMBR 636355 63 0 100 30.27 1.5 0N3 @ 12:09 AM0 OVC 300
APGPHILLIPS AAF/ABERDN22 Oct 02:58 PMSite Offline
2W6Leonardtown06 Oct 09:37 AMSite Offline
RJDRidgely16 Sep 02:04 PMSite Offline
  Plot Plot Plot Plot Plot Plot Plot Plot Plot   Plot Plot Plot